Arminto, WY

9:56 AM MDT on September 17, 2014 (GMT -0600)
Natrona County International | Change Station
CLOSE
Current Station
Airport
Location: Casper,
Elevation: 5289 ft
Nearby Weather Stations

Elev 5289 ft 42.90 °N, 106.47 °W | Updated 1 hour ago

Clear
Clear
64 °F
Feels Like 64 °F
N
8
Wind Variable Wind from West

Today
High -- | Low -- °F
--% Chance of Precip.
Yesterday
High -- | Low -- °F
Precip. -- in
6:51 AM 7:15 PM
Waning Crescent, 35% visible
Pressure 29.91 in
Visibility 10.0 miles
Clouds Clear
Dew Point 38 °F
Humidity 38%
Rainfall 0.00 in
Snow Depth 0 in , 0 in , 0 in
UV 2 out of 12
Pollen 6.10 out of 12
Air Quality Not available.
Flu Activity Not available.
METAR KCPR 171453Z 28007KT 10SM CLR 18/03 A3008 RMK AO2 SLP126 T01780033 55004

More Conditions Fewer Conditions

Pressure 29.91 in
Visibility 10.0 miles
Clouds Clear
Dew Point 38 °F
Humidity 38%
Rainfall 0.00 in
Snow Depth 0 in , 0 in , 0 in
UV 2 out of 12
Pollen 6.10 out of 12
Air Quality Not available.
Flu Activity Not available.
METAR KCPR 171453Z 28007KT 10SM CLR 18/03 A3008 RMK AO2 SLP126 T01780033 55004

More Conditions Fewer Conditions

10-Day Weather Forecast

Almanac

Astronomy

Sep. 17, 2014 Rise Set
Actual Time 6:51 AM MDT 7:15 PM MDT
Civil Twilight 6:22 AM MDT 7:44 PM MDT
Nautical Twilight 5:49 AM MDT 8:17 PM MDT
Astronomical Twilight 5:14 AM MDT 8:52 PM MDT
Moon 12:47 AM MDT 3:34 PM MDT
Length of Visible Light 13h 21m
Length of Day
12h 24m
Tomorrow will be 2m 55s shorter.
Waning Crescent, 35% of the Moon is Illuminated
Today
Waning Crescent
Sep 24
New
Oct 1
First Quarter
Oct 8
Full
Oct 15
Last Quarter

Today's Extremes

State Highs State Lows

Community

WunderPhotos

Upload Photos

1,754,082 photos uploaded!

Nearby

Snow Depth

Station Depth Elevation
Wolverine 0 in 7650 ft
Canyon 0 in 8090 ft
South Brush Creek 0 in 8440 ft
Blackwater 0 in 9780 ft
Hams Fork 0 in 7840 ft

Earthquake Activity

City Distance Mag. Time & Date
No recent earthquake activity has been reported nearby.
Minimum magnitude displayed is 2.5.

Coastal Water Temperatures

Place Temperature
No Stations Reporting

Nearby Weather Stations